Time;durP1;ratioP1;P1;durP2;ratioP2;P2;SDS_P1;SDS_P2;PMS_P1;PMS_P2;Temp;Humidity;BMP_temperature;BMP_pressure;BME280_temperature;BME280_humidity;BME280_pressure;Samples;Min_cycle;Max_cycle;Signal;HPM_P1;HPM_P2
2021/08/05 00:01:05;;;;;;;1.23;0.70;;;24.80;56.50;;;;;;4984857;28;20743;-62
2021/08/05 00:03:32;;;;;;;1.30;0.60;;;24.80;56.50;;;;;;4985991;28;20399;-62
2021/08/05 00:05:59;;;;;;;1.20;0.63;;;24.80;56.50;;;;;;4983101;28;20409;-62
2021/08/05 00:08:26;;;;;;;1.10;0.70;;;24.80;56.50;;;;;;4984663;28;20414;-62
2021/08/05 00:10:52;;;;;;;1.08;0.60;;;24.80;56.50;;;;;;4985815;28;20875;-62
2021/08/05 00:13:17;;;;;;;1.00;0.60;;;24.80;56.40;;;;;;4984547;28;20393;-62
2021/08/05 00:15:43;;;;;;;1.10;0.60;;;24.80;56.50;;;;;;4984686;28;20798;-63
2021/08/05 00:18:08;;;;;;;1.17;0.77;;;24.80;56.50;;;;;;4882174;28;3069624;-63
2021/08/05 00:20:36;;;;;;;1.00;0.50;;;24.80;56.40;;;;;;4986222;28;20410;-63
2021/08/05 00:23:02;;;;;;;1.02;0.63;;;24.80;56.40;;;;;;4985490;28;20453;-62
2021/08/05 00:25:28;;;;;;;1.05;0.70;;;24.70;56.40;;;;;;4987377;28;20402;-63
2021/08/05 00:27:53;;;;;;;1.00;0.60;;;24.70;56.30;;;;;;4986394;28;20901;-62
2021/08/05 00:30:19;;;;;;;0.90;0.50;;;24.80;56.90;;;;;;4989639;28;20738;-62
2021/08/05 00:32:44;;;;;;;0.98;0.57;;;24.80;56.30;;;;;;4989195;28;20408;-62
2021/08/05 00:35:10;;;;;;;0.90;0.60;;;24.70;56.40;;;;;;4986509;28;20974;-62
2021/08/05 00:37:36;;;;;;;0.90;0.50;;;24.70;56.90;;;;;;4985682;28;20414;-62
2021/08/05 00:40:02;;;;;;;1.30;0.70;;;24.80;56.40;;;;;;4985666;28;20942;-62
2021/08/05 00:42:28;;;;;;;0.90;0.50;;;24.70;56.30;;;;;;4991629;28;20430;-62
2021/08/05 00:44:54;;;;;;;1.30;0.80;;;24.70;56.30;;;;;;4990704;28;20426;-62
2021/08/05 00:47:19;;;;;;;1.00;0.60;;;24.70;56.40;;;;;;4985353;28;20477;-62
2021/08/05 00:49:45;;;;;;;1.35;0.50;;;24.70;56.20;;;;;;4987164;28;20724;-62
2021/08/05 00:52:11;;;;;;;1.10;0.50;;;24.70;56.30;;;;;;4986672;28;20387;-62
2021/08/05 00:54:37;;;;;;;0.90;0.50;;;24.70;56.20;;;;;;4986314;28;20760;-62
2021/08/05 00:57:03;;;;;;;0.90;0.60;;;24.70;56.20;;;;;;4986322;28;20398;-62
2021/08/05 00:59:29;;;;;;;1.00;0.60;;;24.70;56.20;;;;;;4985068;28;20389;-62
2021/08/05 01:02:05;;;;;;;1.10;0.60;;;24.70;56.20;;;;;;4984519;28;20503;-62
2021/08/05 01:04:33;;;;;;;1.90;0.55;;;24.80;56.20;;;;;;4987072;28;20865;-62
2021/08/05 01:07:10;;;;;;;1.58;0.60;;;24.70;56.40;;;;;;4984594;28;20421;-62
2021/08/05 01:09:57;;;;;;;1.83;0.50;;;24.70;56.50;;;;;;4983986;28;20507;-62
2021/08/05 01:12:43;;;;;;;1.10;0.60;;;24.70;56.60;;;;;;4984148;28;20482;-62
2021/08/05 01:15:20;;;;;;;1.42;0.70;;;24.70;56.50;;;;;;4984245;28;20405;-62
2021/08/05 01:17:55;;;;;;;1.90;0.43;;;24.70;56.50;;;;;;4984724;28;20459;-62
2021/08/05 01:20:22;;;;;;;0.73;0.50;;;24.70;56.40;;;;;;4983932;28;20895;-62
2021/08/05 01:22:53;;;;;;;1.10;0.50;;;24.70;56.20;;;;;;4986399;28;20850;-63
2021/08/05 01:25:31;;;;;;;1.45;0.45;;;24.70;56.40;;;;;;4986463;28;20493;-62
2021/08/05 01:28:00;;;;;;;0.90;0.40;;;24.70;56.30;;;;;;4985860;28;20457;-62
2021/08/05 01:30:27;;;;;;;0.75;0.40;;;24.70;56.30;;;;;;4986305;28;20429;-62
2021/08/05 01:32:56;;;;;;;0.88;0.50;;;24.80;56.30;;;;;;4984789;28;20389;-62
2021/08/05 01:35:22;;;;;;;1.90;0.50;;;24.80;56.30;;;;;;4991297;28;20751;-62
2021/08/05 01:37:49;;;;;;;0.93;0.40;;;24.80;56.40;;;;;;4984284;28;20390;-62
2021/08/05 01:40:15;;;;;;;1.00;0.60;;;24.80;56.30;;;;;;4986703;28;21671;-62
2021/08/05 01:42:42;;;;;;;0.80;0.40;;;24.80;56.30;;;;;;4986940;28;20455;-62
2021/08/05 01:45:09;;;;;;;0.80;0.40;;;24.80;56.30;;;;;;4984582;28;20406;-63
2021/08/05 01:47:39;;;;;;;1.25;0.50;;;24.80;56.20;;;;;;4987781;28;20418;-62
2021/08/05 01:50:07;;;;;;;1.05;0.45;;;24.70;56.20;;;;;;4987437;28;20394;-62
2021/08/05 01:52:34;;;;;;;1.25;0.40;;;24.80;56.20;;;;;;4983740;28;20951;-62
2021/08/05 01:55:00;;;;;;;1.90;0.40;;;24.80;56.20;;;;;;4987952;28;20523;-62
2021/08/05 01:57:26;;;;;;;1.10;0.50;;;24.80;56.20;;;;;;4983946;28;20405;-62
2021/08/05 01:59:52;;;;;;;1.00;0.40;;;24.70;56.10;;;;;;4983893;28;20430;-62
2021/08/05 02:02:17;;;;;;;0.70;0.40;;;24.80;56.10;;;;;;4983937;28;20402;-62
2021/08/05 02:05:05;;;;;;;0.88;0.50;;;24.80;56.10;;;;;;4981888;28;20433;-62
2021/08/05 02:07:40;;;;;;;0.70;0.40;;;24.80;56.10;;;;;;4984123;28;20405;-63
2021/08/05 02:10:34;;;;;;;0.68;0.40;;;24.80;56.10;;;;;;4994404;28;20399;-62
2021/08/05 02:13:20;;;;;;;0.63;0.43;;;24.80;56.10;;;;;;4981939;28;20485;-62
2021/08/05 02:16:06;;;;;;;0.80;0.50;;;24.80;56.20;;;;;;4988097;28;20406;-63
2021/08/05 02:18:33;;;;;;;0.60;0.30;;;24.80;56.10;;;;;;4985224;28;20422;-62
2021/08/05 02:21:01;;;;;;;0.55;0.38;;;24.80;56.00;;;;;;4985730;28;20394;-63
2021/08/05 02:23:29;;;;;;;0.95;0.47;;;24.80;56.00;;;;;;4986563;28;20953;-62
2021/08/05 02:25:55;;;;;;;1.30;0.50;;;24.80;56.00;;;;;;4987160;28;20877;-62
2021/08/05 02:28:23;;;;;;;0.80;0.40;;;24.80;56.00;;;;;;4988640;28;20404;-62
2021/08/05 02:30:51;;;;;;;1.25;0.45;;;24.80;56.00;;;;;;4983341;28;20403;-62
2021/08/05 02:33:18;;;;;;;0.73;0.32;;;24.80;55.90;;;;;;4987046;28;20794;-62
2021/08/05 02:35:45;;;;;;;0.80;0.50;;;24.80;55.90;;;;;;4984555;28;20402;-62
2021/08/05 02:38:11;;;;;;;0.60;0.40;;;24.80;55.90;;;;;;4987530;28;20436;-62
2021/08/05 02:40:38;;;;;;;0.52;0.40;;;24.80;55.80;;;;;;4986694;28;20434;-62
2021/08/05 02:43:07;;;;;;;0.70;0.40;;;24.80;55.90;;;;;;4983572;28;21188;-62
2021/08/05 02:45:35;;;;;;;0.73;0.40;;;24.80;55.80;;;;;;4988587;28;20489;-62
2021/08/05 02:48:01;;;;;;;0.70;0.38;;;24.80;55.80;;;;;;4988866;28;20433;-62
2021/08/05 02:50:31;;;;;;;0.68;0.40;;;24.80;55.80;;;;;;4983463;28;20391;-62
2021/08/05 02:52:57;;;;;;;0.80;0.40;;;24.80;55.80;;;;;;4983725;28;20509;-63
2021/08/05 02:55:24;;;;;;;0.77;0.37;;;24.80;55.80;;;;;;4983655;28;20394;-62
2021/08/05 02:57:52;;;;;;;1.00;0.40;;;24.80;55.70;;;;;;4983080;28;20890;-62
2021/08/05 03:00:18;;;;;;;1.40;0.37;;;24.80;55.70;;;;;;4983911;28;20484;-62
2021/08/05 03:02:44;;;;;;;0.65;0.38;;;24.80;55.70;;;;;;4984113;28;20460;-62
2021/08/05 03:05:10;;;;;;;0.80;0.40;;;24.80;55.70;;;;;;4982856;28;20409;-62
2021/08/05 03:07:36;;;;;;;0.80;0.50;;;24.80;55.70;;;;;;4983444;28;20925;-62
2021/08/05 03:10:04;;;;;;;1.23;0.40;;;24.80;55.70;;;;;;4986198;28;20394;-62
2021/08/05 03:12:30;;;;;;;0.80;0.30;;;24.80;55.70;;;;;;5000000;28;20392;-62
2021/08/05 03:14:55;;;;;;;0.80;0.30;;;24.80;55.80;;;;;;4989603;28;21043;-62
2021/08/05 03:17:21;;;;;;;1.50;0.40;;;24.80;56.20;;;;;;4990886;28;20891;-63
2021/08/05 03:19:47;;;;;;;1.20;0.32;;;24.80;56.40;;;;;;4986765;28;21067;-62
2021/08/05 03:22:12;;;;;;;0.80;0.50;;;24.70;56.00;;;;;;4986926;28;20431;-62
2021/08/05 03:24:38;;;;;;;0.90;0.40;;;24.70;56.80;;;;;;4992637;28;20410;-62
2021/08/05 03:27:04;;;;;;;1.40;0.40;;;24.80;56.70;;;;;;4992297;28;20437;-62
2021/08/05 03:29:30;;;;;;;12.80;0.70;;;24.80;56.20;;;;;;4989268;28;20420;-62
2021/08/05 03:31:55;;;;;;;8.17;0.57;;;24.80;56.90;;;;;;4986222;28;20945;-62
2021/08/05 03:34:21;;;;;;;4.75;0.65;;;24.90;57.70;;;;;;4986868;28;20461;-62
2021/08/05 03:36:47;;;;;;;1.67;0.50;;;24.90;57.80;;;;;;4985488;28;20430;-62
2021/08/05 03:39:12;;;;;;;3.95;0.50;;;24.90;58.30;;;;;;4992670;28;20433;-62
2021/08/05 03:41:38;;;;;;;2.73;0.47;;;24.90;58.30;;;;;;4986199;28;20944;-62
2021/08/05 03:44:04;;;;;;;2.00;0.53;;;24.90;58.40;;;;;;4986123;28;20406;-62
2021/08/05 03:46:29;;;;;;;1.45;0.30;;;24.90;58.30;;;;;;4992023;28;20432;-62
2021/08/05 03:48:55;;;;;;;3.67;0.50;;;24.90;58.00;;;;;;4985835;28;20425;-62
2021/08/05 03:51:21;;;;;;;3.63;0.40;;;24.90;57.90;;;;;;4989661;28;20394;-62
2021/08/05 03:53:46;;;;;;;4.03;0.50;;;24.90;57.70;;;;;;4989142;28;20406;-62
2021/08/05 03:56:12;;;;;;;5.53;0.68;;;25.00;57.60;;;;;;4986292;28;20743;-62
2021/08/05 03:58:38;;;;;;;5.57;0.70;;;25.00;57.80;;;;;;4985492;28;20721;-62
2021/08/05 04:01:03;;;;;;;7.13;0.75;;;25.10;57.70;;;;;;4986616;28;20429;-62
2021/08/05 04:03:29;;;;;;;6.40;0.70;;;25.10;57.80;;;;;;4990103;28;20913;-62
2021/08/05 04:05:55;;;;;;;5.82;0.60;;;25.10;58.00;;;;;;4990782;28;20918;-62
2021/08/05 04:08:20;;;;;;;7.10;0.60;;;25.10;58.00;;;;;;4987024;28;20943;-62
2021/08/05 04:10:46;;;;;;;4.30;0.53;;;25.10;57.80;;;;;;4985341;28;20810;-62
2021/08/05 04:13:13;;;;;;;5.85;0.60;;;25.00;57.40;;;;;;4985678;28;20394;-62
2021/08/05 04:15:41;;;;;;;4.18;0.65;;;25.00;57.40;;;;;;4988666;28;20393;-62
2021/08/05 04:18:06;;;;;;;3.70;0.43;;;25.00;57.40;;;;;;4992646;28;20426;-62
2021/08/05 04:20:32;;;;;;;3.10;0.50;;;25.10;57.20;;;;;;4990962;28;20394;-62
2021/08/05 04:22:58;;;;;;;4.05;0.90;;;25.00;56.90;;;;;;4984049;28;20388;-62
2021/08/05 04:25:23;;;;;;;3.40;0.57;;;25.00;56.90;;;;;;4985489;28;20390;-62
2021/08/05 04:27:49;;;;;;;2.05;0.40;;;25.00;56.60;;;;;;4985036;28;20426;-62
2021/08/05 04:30:14;;;;;;;2.90;0.70;;;25.00;56.60;;;;;;4988690;28;20762;-62
2021/08/05 04:32:41;;;;;;;5.27;0.80;;;25.00;56.40;;;;;;4985320;28;21274;-62
2021/08/05 04:35:08;;;;;;;2.33;0.50;;;25.00;56.40;;;;;;4987074;28;20898;-62
2021/08/05 04:37:34;;;;;;;3.90;0.73;;;25.00;56.40;;;;;;4984884;28;20434;-62
2021/08/05 04:39:59;;;;;;;2.55;0.55;;;25.00;56.30;;;;;;4984887;28;20414;-62
2021/08/05 04:42:25;;;;;;;2.47;0.50;;;25.00;56.20;;;;;;4985142;28;20743;-62
2021/08/05 04:44:51;;;;;;;1.92;0.50;;;25.00;56.10;;;;;;4984199;28;20407;-62
2021/08/05 04:47:17;;;;;;;2.60;0.70;;;25.00;56.10;;;;;;4987657;28;20755;-62
2021/08/05 04:49:42;;;;;;;1.83;0.63;;;25.00;56.10;;;;;;4987530;28;20521;-62
2021/08/05 04:52:08;;;;;;;3.30;0.60;;;24.90;55.90;;;;;;4985346;28;20396;-62
2021/08/05 04:54:34;;;;;;;2.50;0.50;;;24.90;56.10;;;;;;4985109;28;20789;-62
2021/08/05 04:57:01;;;;;;;2.45;0.50;;;24.90;56.00;;;;;;4988349;28;20409;-62
2021/08/05 04:59:27;;;;;;;2.00;0.40;;;25.00;56.00;;;;;;4992818;28;20487;-62
2021/08/05 05:01:53;;;;;;;1.45;0.50;;;25.00;56.00;;;;;;4984724;28;20866;-62
2021/08/05 05:04:19;;;;;;;1.17;0.50;;;25.00;56.00;;;;;;4984975;28;20403;-62
2021/08/05 05:06:44;;;;;;;2.77;0.50;;;24.90;56.00;;;;;;4985403;28;20397;-62
2021/08/05 05:09:10;;;;;;;2.33;0.52;;;25.00;56.10;;;;;;4983359;28;20499;-62
2021/08/05 05:11:35;;;;;;;1.03;0.47;;;24.90;56.10;;;;;;4987941;28;20818;-62
2021/08/05 05:14:01;;;;;;;1.93;0.50;;;24.90;56.20;;;;;;4984388;28;20494;-62
2021/08/05 05:16:27;;;;;;;2.50;0.57;;;24.90;56.20;;;;;;4988329;28;20917;-62
2021/08/05 05:18:53;;;;;;;3.53;0.80;;;24.90;56.00;;;;;;4986035;28;20489;-62
2021/08/05 05:21:18;;;;;;;2.45;0.60;;;24.90;55.70;;;;;;4984705;28;20461;-62
2021/08/05 05:23:44;;;;;;;3.53;0.70;;;24.90;55.80;;;;;;4985168;28;20394;-62
2021/08/05 05:26:10;;;;;;;1.50;0.70;;;24.80;55.60;;;;;;4984739;28;20390;-62
2021/08/05 05:28:37;;;;;;;3.63;0.90;;;24.70;55.50;;;;;;4984187;28;20441;-62
2021/08/05 05:31:03;;;;;;;3.30;0.70;;;24.80;55.60;;;;;;4988813;28;20397;-62
2021/08/05 05:33:29;;;;;;;2.55;0.65;;;24.80;55.50;;;;;;4988569;28;20386;-62
2021/08/05 05:35:55;;;;;;;1.73;0.60;;;24.90;55.50;;;;;;4989246;28;20390;-62
2021/08/05 05:38:21;;;;;;;1.80;0.50;;;24.90;55.50;;;;;;4991670;28;20405;-62
2021/08/05 05:40:46;;;;;;;2.55;0.65;;;24.90;55.70;;;;;;4984159;28;20882;-62
2021/08/05 05:43:13;;;;;;;1.80;0.60;;;24.90;55.60;;;;;;4988864;28;20395;-62
2021/08/05 05:45:39;;;;;;;2.97;0.80;;;24.90;55.60;;;;;;4984996;28;20831;-62
2021/08/05 05:48:06;;;;;;;2.40;0.70;;;24.90;55.60;;;;;;4984832;28;20438;-62
2021/08/05 05:50:33;;;;;;;3.20;0.85;;;24.90;55.60;;;;;;4987619;28;20401;-62
2021/08/05 05:52:59;;;;;;;2.58;0.70;;;24.80;55.60;;;;;;4985112;28;20477;-62
2021/08/05 05:55:26;;;;;;;1.92;0.90;;;24.90;55.70;;;;;;4986395;28;20464;-62
2021/08/05 05:57:51;;;;;;;2.60;0.80;;;24.90;55.70;;;;;;4986433;28;20414;-62
2021/08/05 06:00:17;;;;;;;1.70;0.80;;;24.90;55.70;;;;;;4986807;28;20424;-62
2021/08/05 06:02:43;;;;;;;1.50;0.90;;;24.90;55.80;;;;;;4987298;28;20894;-62
2021/08/05 06:05:10;;;;;;;2.47;0.82;;;24.90;55.80;;;;;;4986210;28;20405;-62
2021/08/05 06:07:44;;;;;;;2.30;0.93;;;24.80;55.70;;;;;;4983694;28;20466;-62
2021/08/05 06:10:12;;;;;;;2.15;0.80;;;24.80;55.80;;;;;;4987521;28;20413;-62
2021/08/05 06:12:38;;;;;;;2.10;0.80;;;24.80;55.90;;;;;;4984793;28;20486;-62
2021/08/05 06:15:04;;;;;;;2.13;0.80;;;24.80;55.80;;;;;;4983636;28;20615;-62
2021/08/05 06:17:30;;;;;;;2.20;0.82;;;24.80;55.80;;;;;;4989820;28;20418;-62
2021/08/05 06:19:55;;;;;;;4.10;0.90;;;24.80;55.90;;;;;;4983609;28;20401;-62
2021/08/05 06:22:21;;;;;;;3.35;0.88;;;24.80;55.90;;;;;;4995494;28;20393;-62
2021/08/05 06:24:46;;;;;;;2.00;0.98;;;24.80;55.90;;;;;;4989356;28;20392;-62
2021/08/05 06:27:12;;;;;;;1.37;0.80;;;24.80;56.00;;;;;;4984995;28;20390;-62
2021/08/05 06:29:38;;;;;;;1.50;0.80;;;24.80;56.00;;;;;;4983059;28;20878;-62
2021/08/05 06:32:03;;;;;;;2.35;0.90;;;24.80;56.10;;;;;;4987859;28;20437;-62
2021/08/05 06:34:29;;;;;;;1.40;0.60;;;24.80;56.10;;;;;;4991872;28;21005;-62
2021/08/05 06:36:55;;;;;;;1.83;0.88;;;24.80;56.10;;;;;;4989034;28;20448;-62
2021/08/05 06:39:20;;;;;;;1.80;0.80;;;24.80;56.10;;;;;;4991953;28;20953;-62
2021/08/05 06:41:47;;;;;;;1.65;1.00;;;24.80;56.10;;;;;;4988905;28;20788;-62
2021/08/05 06:44:13;;;;;;;1.80;0.80;;;24.80;56.20;;;;;;4989315;28;20477;-62
2021/08/05 06:46:38;;;;;;;2.15;0.80;;;24.80;56.20;;;;;;4991612;28;20386;-62
2021/08/05 06:49:04;;;;;;;1.40;0.63;;;24.80;56.20;;;;;;4986475;28;20430;-62
2021/08/05 06:51:30;;;;;;;1.60;0.77;;;24.80;56.00;;;;;;4993039;28;20452;-62
2021/08/05 06:53:55;;;;;;;2.40;0.90;;;24.80;56.00;;;;;;4986380;28;20763;-62
2021/08/05 06:56:21;;;;;;;2.07;1.00;;;24.90;56.10;;;;;;5003459;28;20392;-62
2021/08/05 06:58:47;;;;;;;3.35;1.50;;;24.90;56.10;;;;;;4991914;28;20407;-62
2021/08/05 07:01:12;;;;;;;4.83;1.80;;;24.90;56.30;;;;;;4991785;28;20396;-62
2021/08/05 07:03:38;;;;;;;2.88;1.20;;;24.90;56.20;;;;;;4996991;28;20412;-62
2021/08/05 07:06:06;;;;;;;3.70;1.53;;;24.90;56.10;;;;;;4992305;28;20485;-62
2021/08/05 07:08:33;;;;;;;2.47;1.20;;;24.90;56.10;;;;;;4992068;28;20420;-62
2021/08/05 07:10:58;;;;;;;4.15;1.60;;;24.90;56.10;;;;;;4994694;28;20387;-62
2021/08/05 07:13:24;;;;;;;3.80;1.58;;;24.90;56.20;;;;;;4991969;28;20449;-62
2021/08/05 07:15:49;;;;;;;4.13;1.63;;;24.90;56.20;;;;;;4995107;28;20404;-62
2021/08/05 07:18:15;;;;;;;2.83;1.47;;;24.90;56.20;;;;;;4990100;28;20970;-62
2021/08/05 07:20:41;;;;;;;3.90;1.30;;;24.90;56.30;;;;;;4991618;28;20395;-62
2021/08/05 07:23:06;;;;;;;3.20;1.40;;;24.90;56.30;;;;;;4996689;28;20401;-62
2021/08/05 07:25:32;;;;;;;4.38;1.48;;;24.90;56.40;;;;;;4986376;28;20449;-62
2021/08/05 07:28:01;;;;;;;3.30;1.30;;;24.90;56.40;;;;;;4995004;28;20921;-62
2021/08/05 07:30:27;;;;;;;2.80;1.40;;;24.90;56.20;;;;;;4998411;28;20405;-62
2021/08/05 07:32:53;;;;;;;3.40;1.30;;;25.00;56.20;;;;;;4991724;28;20385;-62
2021/08/05 07:35:18;;;;;;;3.17;1.30;;;25.00;56.20;;;;;;4990103;28;20444;-62
2021/08/05 07:37:44;;;;;;;3.25;1.20;;;24.90;56.20;;;;;;4988474;28;20466;-62
2021/08/05 07:40:10;;;;;;;2.07;1.00;;;25.00;56.60;;;;;;4994325;28;20451;-62
2021/08/05 07:42:36;;;;;;;3.15;1.30;;;24.90;56.20;;;;;;4994103;28;20394;-62
2021/08/05 07:45:03;;;;;;;2.45;1.10;;;24.90;56.10;;;;;;4991619;28;20398;-62
2021/08/05 07:47:28;;;;;;;2.10;1.08;;;24.90;56.20;;;;;;4995700;28;20397;-62
2021/08/05 07:49:54;;;;;;;1.87;0.90;;;24.90;56.10;;;;;;4998472;28;20788;-62
2021/08/05 07:52:20;;;;;;;2.08;1.00;;;24.90;56.10;;;;;;4994536;28;20388;-62
2021/08/05 07:54:46;;;;;;;1.97;0.97;;;24.90;56.20;;;;;;4991241;28;20490;-62
2021/08/05 07:57:11;;;;;;;2.15;0.90;;;24.90;56.10;;;;;;4989605;28;20426;-62
2021/08/05 07:59:37;;;;;;;2.23;1.00;;;24.90;56.20;;;;;;4991754;28;20500;-62
2021/08/05 08:02:03;;;;;;;1.30;0.82;;;24.90;56.10;;;;;;4991664;28;20398;-62
2021/08/05 08:04:29;;;;;;;1.55;0.80;;;24.90;56.00;;;;;;4997819;28;20409;-62
2021/08/05 08:06:54;;;;;;;2.40;1.00;;;24.90;56.10;;;;;;4983691;28;20395;-62
2021/08/05 08:09:20;;;;;;;2.22;0.85;;;24.90;56.00;;;;;;4996878;28;20981;-62
2021/08/05 08:11:46;;;;;;;1.90;0.73;;;24.90;56.00;;;;;;4990640;28;20388;-62
2021/08/05 08:14:11;;;;;;;1.83;0.80;;;24.90;56.60;;;;;;4990320;28;20409;-62
2021/08/05 08:16:40;;;;;;;1.55;0.75;;;24.90;56.00;;;;;;4994899;28;20385;-62
2021/08/05 08:19:06;;;;;;;1.90;0.85;;;24.90;56.00;;;;;;4990200;28;20416;-62
2021/08/05 08:21:32;;;;;;;1.63;0.70;;;25.00;56.10;;;;;;4991069;28;20393;-62
2021/08/05 08:23:57;;;;;;;1.80;0.80;;;25.00;56.00;;;;;;4995639;28;20454;-62
2021/08/05 08:26:23;;;;;;;1.50;0.70;;;25.00;56.00;;;;;;4989702;28;20753;-62
2021/08/05 08:28:49;;;;;;;1.30;0.60;;;25.00;56.00;;;;;;4991382;28;20486;-62
2021/08/05 08:31:14;;;;;;;1.50;0.70;;;25.00;56.00;;;;;;4990715;28;20910;-62
2021/08/05 08:33:40;;;;;;;1.50;0.70;;;25.00;55.90;;;;;;4991757;28;20399;-62
2021/08/05 08:36:06;;;;;;;1.50;0.60;;;25.00;55.80;;;;;;4997066;28;20393;-62
2021/08/05 08:38:31;;;;;;;1.75;0.60;;;25.00;55.80;;;;;;4989858;28;20409;-62
2021/08/05 08:41:00;;;;;;;1.27;0.63;;;25.00;56.00;;;;;;4985768;28;20391;-62
2021/08/05 08:43:26;;;;;;;1.20;0.70;;;25.00;55.80;;;;;;4992228;28;20405;-62
2021/08/05 08:45:54;;;;;;;1.15;0.60;;;25.00;55.80;;;;;;4991264;28;20394;-62
2021/08/05 08:48:20;;;;;;;1.20;0.50;;;25.00;55.80;;;;;;4990344;28;20405;-62
2021/08/05 08:50:48;;;;;;;1.13;0.60;;;25.00;55.80;;;;;;4992097;28;20464;-62
2021/08/05 08:53:16;;;;;;;1.23;0.50;;;25.00;55.80;;;;;;4987551;28;20464;-62
2021/08/05 08:55:47;;;;;;;1.20;0.52;;;25.00;55.70;;;;;;4991320;28;20429;-62
2021/08/05 08:58:16;;;;;;;0.80;0.50;;;25.00;55.70;;;;;;4990192;28;20873;-62
2021/08/05 09:00:42;;;;;;;1.10;0.52;;;25.00;55.70;;;;;;4993008;28;20493;-62
2021/08/05 09:03:08;;;;;;;0.83;0.40;;;25.00;55.70;;;;;;4993365;28;20390;-62
2021/08/05 09:05:34;;;;;;;0.90;0.50;;;25.00;55.70;;;;;;4990860;28;20385;-62
2021/08/05 09:08:02;;;;;;;1.65;0.50;;;25.00;55.70;;;;;;4992889;28;20459;-62
2021/08/05 09:10:29;;;;;;;1.30;0.50;;;25.00;55.70;;;;;;4992666;28;20397;-62
2021/08/05 09:12:56;;;;;;;1.00;0.40;;;25.00;55.70;;;;;;4994649;28;20869;-62
2021/08/05 09:15:35;;;;;;;0.82;0.40;;;25.00;55.60;;;;;;4988231;28;20419;-62
2021/08/05 09:18:02;;;;;;;0.70;0.40;;;25.00;55.70;;;;;;4988664;28;20480;-62
2021/08/05 09:20:27;;;;;;;0.88;0.50;;;25.00;55.70;;;;;;4992332;28;20398;-62
2021/08/05 09:22:53;;;;;;;0.90;0.50;;;25.00;55.60;;;;;;4989949;28;20437;-62
2021/08/05 09:25:31;;;;;;;0.98;0.60;;;25.00;55.40;;;;;;4992583;28;21047;-62
2021/08/05 09:28:17;;;;;;;0.95;0.50;;;25.00;55.50;;;;;;4994264;28;20417;-62
2021/08/05 09:30:44;;;;;;;0.85;0.40;;;25.00;55.50;;;;;;4992160;28;20387;-62
2021/08/05 09:33:16;;;;;;;0.85;0.50;;;25.00;55.50;;;;;;4992033;28;20385;-62
2021/08/05 09:35:43;;;;;;;0.85;0.30;;;25.00;55.50;;;;;;4992316;28;20883;-62
2021/08/05 09:38:22;;;;;;;1.02;0.40;;;25.10;55.50;;;;;;4984574;28;20386;-62
2021/08/05 09:40:50;;;;;;;0.90;0.40;;;25.10;55.50;;;;;;4987438;28;20812;-62
2021/08/05 09:43:27;;;;;;;0.90;0.50;;;25.10;55.40;;;;;;4989222;28;20381;-62
2021/08/05 09:45:53;;;;;;;0.90;0.40;;;25.10;55.30;;;;;;4989246;28;20471;-62
2021/08/05 09:48:42;;;;;;;1.05;0.45;;;25.10;55.30;;;;;;4989218;28;20960;-62
2021/08/05 09:51:14;;;;;;;1.00;0.40;;;25.10;55.30;;;;;;4994477;28;20396;-62
2021/08/05 09:54:03;;;;;;;0.50;0.30;;;25.10;55.30;;;;;;4989485;28;20497;-62
2021/08/05 09:56:35;;;;;;;0.60;0.30;;;25.10;55.30;;;;;;4985174;28;20477;-62
2021/08/05 09:59:12;;;;;;;0.57;0.40;;;25.10;55.30;;;;;;4989353;28;20393;-62
2021/08/05 10:01:59;;;;;;;0.73;0.40;;;25.10;55.40;;;;;;4995186;28;20393;-62
2021/08/05 10:04:36;;;;;;;0.90;0.40;;;25.00;55.40;;;;;;4987414;28;20468;-62
2021/08/05 10:07:06;;;;;;;0.70;0.30;;;25.00;56.00;;;;;;4993574;28;20462;-62
2021/08/05 10:09:33;;;;;;;1.27;0.50;;;25.10;55.30;;;;;;4987600;28;20422;-62
2021/08/05 10:12:13;;;;;;;1.40;0.60;;;25.00;56.00;;;;;;4987669;28;20390;-62
2021/08/05 10:14:40;;;;;;;2.30;0.43;;;25.10;56.00;;;;;;4985249;28;20755;-63
2021/08/05 10:17:07;;;;;;;2.60;0.52;;;25.00;55.90;;;;;;4984587;28;20394;-63
2021/08/05 10:19:42;;;;;;;1.65;0.60;;;25.00;55.90;;;;;;4983925;28;20401;-62
2021/08/05 10:22:10;;;;;;;1.42;0.40;;;25.00;55.80;;;;;;4991131;28;20474;-62
2021/08/05 10:24:38;;;;;;;1.20;0.40;;;25.10;55.60;;;;;;4986554;28;20413;-62
2021/08/05 10:27:06;;;;;;;1.00;0.50;;;25.10;55.50;;;;;;4989295;28;20389;-62
2021/08/05 10:29:34;;;;;;;1.35;0.55;;;25.10;55.50;;;;;;4990255;28;20424;-62
2021/08/05 10:32:02;;;;;;;1.42;0.50;;;25.10;55.50;;;;;;4987833;28;20390;-62
2021/08/05 10:34:28;;;;;;;0.80;0.40;;;25.10;55.50;;;;;;4989703;28;20402;-62
2021/08/05 10:36:54;;;;;;;2.10;0.50;;;25.10;55.50;;;;;;4988477;28;20514;-62
2021/08/05 10:39:20;;;;;;;1.00;0.50;;;25.10;55.50;;;;;;4988291;28;20858;-62
2021/08/05 10:41:47;;;;;;;1.02;0.40;;;25.10;55.40;;;;;;4988386;28;20386;-62
2021/08/05 10:44:14;;;;;;;0.90;0.40;;;25.10;55.40;;;;;;4987034;28;20912;-62
2021/08/05 10:46:41;;;;;;;1.80;0.45;;;25.10;55.40;;;;;;4988160;28;20394;-62
2021/08/05 10:49:07;;;;;;;0.60;0.30;;;25.10;55.30;;;;;;4987695;28;20430;-63
2021/08/05 10:51:35;;;;;;;0.80;0.40;;;25.10;55.30;;;;;;4986986;28;20460;-62
2021/08/05 10:54:01;;;;;;;1.30;0.50;;;25.20;55.40;;;;;;4987960;28;20401;-62
2021/08/05 10:56:32;;;;;;;0.80;0.30;;;25.10;55.20;;;;;;4988336;28;20390;-63
2021/08/05 10:59:17;;;;;;;0.60;0.30;;;25.20;55.20;;;;;;4987627;28;20460;-62
2021/08/05 11:02:01;;;;;;;0.77;0.30;;;25.10;55.10;;;;;;4986564;28;20461;-62
2021/08/05 11:04:33;;;;;;;0.63;0.32;;;25.20;55.20;;;;;;4987646;28;20432;-62
2021/08/05 11:07:20;;;;;;;1.33;0.30;;;25.20;55.10;;;;;;4987430;28;21398;-62
2021/08/05 11:09:46;;;;;;;0.63;0.30;;;25.20;55.10;;;;;;4988370;28;20521;-63
2021/08/05 11:13:18;;;;;;;0.73;0.40;;;25.20;55.10;;;;;;4987194;28;20389;-62
2021/08/05 11:15:46;;;;;;;0.60;0.30;;;25.20;55.00;;;;;;4982508;28;20402;-62
2021/08/05 11:18:15;;;;;;;1.25;0.40;;;25.20;55.10;;;;;;4985486;28;20457;-62
2021/08/05 11:20:42;;;;;;;0.60;0.30;;;25.20;55.10;;;;;;4988560;28;20410;-62
2021/08/05 11:25:55;;;;;;;0.60;0.30;;;25.20;55.00;;;;;;4986127;28;20498;-63
2021/08/05 11:28:28;;;;;;;0.50;0.30;;;25.20;55.10;;;;;;4986238;28;20450;-62
2021/08/05 11:31:07;;;;;;;0.80;0.40;;;25.20;55.10;;;;;;4986327;28;20382;-63
2021/08/05 11:33:39;;;;;;;0.70;0.40;;;25.20;55.00;;;;;;4986024;28;20520;-62
2021/08/05 11:36:15;;;;;;;0.77;0.43;;;25.20;55.10;;;;;;4985537;28;20398;-62
2021/08/05 11:39:07;;;;;;;0.60;0.40;;;25.20;55.00;;;;;;4986470;28;20392;-63
2021/08/05 11:42:08;;;;;;;0.98;0.50;;;25.20;55.00;;;;;;4986115;28;20811;-62
2021/08/05 11:44:41;;;;;;;1.13;0.40;;;25.20;55.00;;;;;;4986803;28;20393;-62
2021/08/05 11:47:33;;;;;;;0.65;0.40;;;25.20;55.00;;;;;;4986779;28;20752;-62
2021/08/05 11:50:10;;;;;;;0.73;0.40;;;25.20;55.00;;;;;;4987786;28;20422;-63
2021/08/05 11:52:50;;;;;;;1.00;0.40;;;25.20;55.00;;;;;;5003881;28;20553;-62
2021/08/05 11:55:17;;;;;;;0.80;0.40;;;25.20;55.00;;;;;;4986000;28;20435;-61
2021/08/05 11:57:48;;;;;;;0.60;0.40;;;25.20;55.00;;;;;;4987957;28;20494;-62
2021/08/05 12:00:14;;;;;;;0.60;0.40;;;25.20;54.90;;;;;;4988101;28;20397;-62
2021/08/05 12:02:40;;;;;;;1.10;0.40;;;25.20;54.80;;;;;;4988617;28;20399;-62
2021/08/05 12:05:07;;;;;;;0.60;0.38;;;25.20;54.90;;;;;;4992772;28;20416;-62
2021/08/05 12:07:38;;;;;;;1.10;0.35;;;25.30;54.90;;;;;;4988941;28;20477;-62
2021/08/05 12:10:11;;;;;;;1.00;0.50;;;25.30;54.90;;;;;;4993761;28;20477;-61
2021/08/05 12:12:46;;;;;;;0.55;0.30;;;25.30;54.90;;;;;;4988112;28;20457;-62
2021/08/05 12:15:32;;;;;;;0.68;0.40;;;25.20;54.80;;;;;;4987291;28;20419;-62
2021/08/05 12:18:07;;;;;;;0.70;0.40;;;25.20;54.80;;;;;;4985200;28;20497;-62
2021/08/05 12:20:36;;;;;;;0.80;0.50;;;25.30;54.90;;;;;;4991917;28;20472;-62
2021/08/05 12:23:29;;;;;;;0.70;0.50;;;25.30;54.90;;;;;;4985512;28;20395;-62
2021/08/05 12:28:27;;;;;;;0.80;0.40;;;25.30;54.80;;;;;;4988773;28;21299;-62
2021/08/05 12:30:54;;;;;;;0.80;0.50;;;25.30;54.80;;;;;;4988332;28;20499;-62
2021/08/05 12:33:24;;;;;;;1.20;0.50;;;25.30;54.80;;;;;;4988207;28;20409;-62
2021/08/05 12:36:12;;;;;;;2.67;0.65;;;25.30;54.80;;;;;;4988544;28;20417;-62
2021/08/05 12:38:59;;;;;;;3.28;0.80;;;25.20;55.10;;;;;;4985814;28;20974;-62
2021/08/05 12:41:32;;;;;;;4.05;0.80;;;25.30;55.10;;;;;;4985289;28;20732;-62
2021/08/05 12:44:06;;;;;;;2.38;0.88;;;25.30;55.10;;;;;;4989152;28;20401;-61
2021/08/05 12:46:34;;;;;;;1.70;0.93;;;25.20;55.10;;;;;;4989269;28;20785;-62
2021/08/05 12:48:59;;;;;;;2.30;1.05;;;25.20;55.20;;;;;;4993246;28;20769;-62
2021/08/05 12:51:28;;;;;;;2.25;1.00;;;25.10;55.10;;;;;;4989002;28;20394;-62
2021/08/05 12:53:54;;;;;;;1.27;0.93;;;25.20;55.10;;;;;;4990086;28;20391;-62
2021/08/05 12:56:40;;;;;;;2.85;1.00;;;25.20;54.90;;;;;;4987806;28;20403;-62
2021/08/05 12:59:06;;;;;;;2.72;1.00;;;25.30;54.70;;;;;;4987295;28;20904;-62